Weather observations for the past three days for
Pennridge Airport
Metric (Imperial)
Date Time (edt) Wind (kph) Vis. (km) Weather Sky Cond. Temperature (ºC) Relative Humidity Wind Chill (°C) Heat Index (°C) Pressure Precipitation (cm)
Air Dwpt 6 hour altimeter (cm) sea level (mb) 1 hr 3 hr 6 hr
Max. Min.
03 01:35 NW 9 16.09 Overcast OVC075 8 -2 50% 7 75.9 0.0
03 01:15 Vrbl 7 16.09 Overcast OVC075 8 -1 53% 7 75.9 0.0
03 00:55 NW 7 16.09 Overcast BKN075 OVC085 8 -1 53% 7 75.9 0.0
03 00:35 Calm 16.09 Overcast BKN075 OVC085 7 0 61% 75.92 0.0
03 00:15 NW 7 16.09 Overcast OVC080 8 0 57% 7 75.92 0.0
02 23:55 NW 7 16.09 Overcast BKN070 OVC085 8 0 57% 7 75.92 0.0
02 23:35 NW 7 16.09 Overcast BKN075 OVC090 8 -1 53% 7 75.92 0.0
02 23:15 NW 7 16.09 Overcast FEW003 FEW075 OVC085 8 -1 53% 7 75.92 0.0
02 22:55 NW 7 16.09 Overcast OVC080 8 -1 53% 7 75.92 0.0
02 22:35 NW 7 16.09 Overcast OVC085 9 -2 46% 8 75.95 0.0
02 22:15 NW 11 16.09 Overcast OVC090 9 -2 46% 8 75.95 0.0
02 21:55 NW 11 16.09 Mostly Cloudy BKN090 9 -2 46% 8 75.92 0.0
02 21:35 NW 11 16.09 Fair CLR 10 -2 43% 9 75.92 0.0
02 21:15 NW 15 16.09 Partly Cloudy SCT080 10 -2 43% 8 75.92 0.0
02 20:55 NW 13 16.09 Mostly Cloudy BKN085 10 -2 43% 8 75.92 0.0
02 20:35 W 11 16.09 Fair CLR 11 -3 38% 75.9 0.0
02 20:15 W 11 16.09 Fair CLR 11 -2 41% 75.9 0.0
02 19:55 NW 11 16.09 Fair CLR 11 -3 38% 75.87 0.0
02 19:35 NW 9 16.09 Fair CLR 11 -3 38% 75.84 0.0
02 19:15 NW 11 G 20 16.09 A Few Clouds FEW085 11 -3 38% 75.87 0.0
02 18:55 NW 13 16.09 A Few Clouds FEW080 12 -4 33% 75.87 0.0
02 18:35 W 15 16.09 Partly Cloudy SCT080 13 -4 31% 75.87 0.0
02 18:15 W 15 16.09 Mostly Cloudy BKN075 13 -3 33% 75.84 0.0
02 17:55 NW 13 16.09 Mostly Cloudy BKN070 BKN080 15 -2 31% 75.84 0.0
02 17:35 NW 7 16.09 Mostly Cloudy BKN080 13 -2 36% 75.84 0.0
02 17:15 NW 11 G 24 16.09 Overcast OVC080 13 -3 33% 75.82 0.0
02 16:55 NW 9 G 24 16.09 Overcast OVC075 14 -2 33% 75.82 0.0
02 16:35 NW 13 16.09 Overcast OVC075 14 -3 31% 75.82 0.0
02 16:15 NW 13 16.09 Mostly Cloudy BKN070 BKN080 14 -3 31% 75.82 0.0
02 15:55 NW 11 G 24 16.09 Mostly Cloudy BKN070 BKN080 14 -3 31% 75.84 0.0
02 15:35 W 13 16.09 Mostly Cloudy BKN070 BKN080 15 -2 31% 75.84 0.0
02 15:15 W 15 16.09 Mostly Cloudy BKN070 14 -2 33% 75.9 0.0
02 14:55 N 13 16.09 Partly Cloudy SCT065 SCT075 14 -1 36% 75.9 0.0
02 14:35 Vrbl 11 16.09 Mostly Cloudy BKN065 BKN075 14 -2 33% 75.92 0.0
02 14:15 NW 11 16.09 Overcast BKN060 OVC070 14 -1 36% 75.95 0.0
02 13:55 Vrbl 7 G 20 16.09 Mostly Cloudy BKN065 BKN075 13 -1 38% 75.95 0.0
02 13:35 W 17 16.09 Partly Cloudy SCT055 SCT070 14 0 39% 75.95 0.0
02 13:15 Vrbl 11 G 20 16.09 Mostly Cloudy BKN055 BKN070 13 0 41% 75.95 0.0
02 12:55 Vrbl 6 16.09 Mostly Cloudy SCT050 BKN055 13 1 44% 75.95 0.0
02 12:35 Vrbl 9 16.09 Partly Cloudy SCT050 SCT055 12 0 44% 76 0.0
02 12:15 Vrbl 9 G 22 16.09 A Few Clouds FEW050 12 0 44% 76.02 0.0
02 11:55 Vrbl 11 G 24 16.09 Fair CLR 12 1 47% 76 0.0
02 11:35 N 13 G 22 16.09 Fair CLR 12 1 47% 76 0.0
02 11:15 N 13 G 28 16.09 A Few Clouds FEW043 12 1 47% 76 0.0
02 10:55 Vrbl 7 16.09 Fair CLR 11 1 50% 76 0.0
02 10:15 NW 15 G 26 16.09 Fair CLR 10 2 58% 8 76.02 0.0
02 09:55 NW 13 G 24 16.09 A Few Clouds FEW085 10 2 58% 8 76.02 0.0
02 09:35 N 13 G 24 16.09 Mostly Cloudy BKN080 9 2 62% 7 76.02 0.0
02 09:15 NW 17 16.09 Partly Cloudy SCT080 SCT090 9 3 66% 7 76.02 0.0
02 08:55 NW 15 16.09 Mostly Cloudy BKN085 9 4 71% 7 76 0.0
02 08:35 N 15 G 28 16.09 Mostly Cloudy BKN080 8 4 76% 6 76.02 0.0
02 08:15 Vrbl 11 G 28 16.09 Overcast OVC080 8 5 82% 6 76 0.0
02 07:55 NW 13 G 30 16.09 Overcast FEW029 OVC085 8 6 87% 6 76 0.0
02 07:35 N 15 G 26 16.09 Overcast BKN015 BKN029 OVC085 8 7 93% 6 75.97 0.0
02 07:15 NW 9 G 19 16.09 Overcast BKN015 OVC095 9 9 100% 8 75.95 0.0
02 06:55 NW 11 16.09 Mostly Cloudy BKN018 BKN080 8 8 100% 6 75.95 0.0
02 06:35 Calm 14.48 Overcast SCT020 BKN075 OVC110 7 7 100% 75.92 0.0
02 06:15 Calm 16.09 Overcast FEW023 BKN027 OVC110 8 8 100% 75.92 0.0
02 05:55 Calm 16.09 Overcast BKN024 OVC035 7 7 100% 75.92 0.0
02 05:35 Calm 12.87 Overcast SCT027 OVC034 7 7 100% 75.92 0.0
02 05:15 Calm 12.87 Mostly Cloudy SCT033 BKN070 BKN080 7 7 100% 75.9 0.0
02 04:55 Calm 16.09 Overcast BKN075 OVC110 8 8 100% 75.9 0.0
02 04:35 Calm 16.09 Overcast FEW031 FEW050 OVC070 8 8 100% 75.9 0.0
02 04:15 Calm 11.27 Light Rain FEW028 BKN050 OVC065 9 9 100% 75.9 0.0
02 03:55 Calm 16.09 Overcast SCT039 OVC047 10 8 88% 75.9 0.0
02 03:35 Calm 16.09 Overcast OVC038 10 8 88% 75.92 0.0
02 03:15 Calm 16.09 Overcast BKN040 BKN060 OVC070 10 7 82% 75.92 0.0
02 02:55 Vrbl 6 16.09 Overcast SCT040 BKN060 OVC090 10 7 82% 75.92 0.0
02 02:35 NW 15 16.09 Overcast BKN041 OVC065 10 7 82% 8 75.92 0.0
02 02:15 NW 9 16.09 Overcast FEW050 OVC065 10 8 88% 9 75.92 0.0
02 01:55 Calm 16.09 Overcast BKN050 OVC065 11 7 77% 75.92 0.0
02 01:35 SW 7 16.09 Overcast BKN060 OVC070 11 7 77% 75.95 0.0
02 01:15 Calm 16.09 Mostly Cloudy FEW031 SCT060 BKN065 10 7 82% 75.92 0.0
02 00:55 W 6 16.09 Overcast FEW050 BKN065 OVC075 11 6 72% 75.95 0.0
02 00:35 Calm 16.09 Overcast OVC065 11 6 72% 75.95 0.0
02 00:15 Calm 16.09 Overcast FEW049 BKN065 OVC080 11 5 67% 75.92 0.0
01 23:55 Calm 16.09 Overcast FEW049 BKN065 OVC080 11 5 67% 75.92 0.0
01 23:35 Calm 16.09 Mostly Cloudy FEW065 SCT075 BKN085 12 4 58% 75.9 0.0
01 23:15 Calm 16.09 Overcast FEW060 BKN090 OVC110 11 4 62% 75.92 0.0
01 22:55 Calm 16.09 Mostly Cloudy FEW049 SCT060 BKN075 11 4 62% 75.92 0.0
01 22:35 Calm 16.09 Overcast FEW048 FEW055 OVC070 10 7 82% 75.95 0.0
01 22:15 Calm 16.09 Overcast FEW055 OVC070 11 5 67% 75.95 0.0
01 21:55 Calm 16.09 Overcast BKN065 OVC075 11 4 62% 75.9 0.0
01 21:35 Calm 16.09 Overcast OVC065 11 4 62% 75.9 0.0
01 21:15 Calm 16.09 Overcast BKN065 OVC075 12 3 54% 75.9 0.0
01 20:55 Calm 16.09 Overcast SCT065 BKN075 OVC090 13 2 47% 75.9 0.0
01 20:35 Calm 16.09 Mostly Cloudy BKN090 13 2 47% 75.87 0.0
01 20:15 Calm 16.09 Mostly Cloudy BKN085 14 2 44% 75.84 0.0
01 19:55 Calm 16.09 Partly Cloudy SCT080 14 2 44% 75.84 0.0
01 19:35 Calm 16.09 Fair CLR 15 1 39% 75.84 0.0
01 19:15 SW 6 16.09 Fair CLR 16 1 36% 75.79 0.0
01 18:55 Vrbl 7 16.09 A Few Clouds FEW075 16 1 36% 75.79 0.0
01 18:35 Vrbl 7 16.09 Partly Cloudy SCT075 16 1 36% 75.79 0.0
01 18:15 SW 9 16.09 A Few Clouds FEW070 16 0 34% 75.82 0.0
01 17:55 SW 13 16.09 Fair CLR 17 1 34% 75.82 0.0
01 17:35 SW 15 G 28 16.09 Fair CLR 17 1 34% 75.82 0.0
01 17:15 SW 15 G 30 16.09 Fair CLR 17 1 34% 75.82 0.0
01 16:55 Vrbl 7 G 19 16.09 Partly Cloudy SCT065 SCT075 17 2 37% 75.82 0.0
01 16:35 Vrbl 9 G 26 16.09 Partly Cloudy SCT070 18 2 34% 75.82 0.0
01 16:15 Vrbl 7 G 24 16.09 Fair CLR 17 1 34% 75.82 0.0
01 15:55 W 15 16.09 Fair CLR 17 1 34% 75.84 0.0
01 15:35 SW 13 16.09 Fair CLR 16 1 36% 75.87 0.0
01 15:15 Vrbl 9 G 26 16.09 A Few Clouds FEW060 17 2 37% 75.87 0.0
01 14:55 Calm 16.09 A Few Clouds FEW060 16 2 39% 75.9 0.0
01 14:35 Vrbl 7 16.09 A Few Clouds FEW060 16 2 39% 75.9 0.0
01 13:55 Vrbl 7 16.09 Fair CLR 15 2 42% 75.92 0.0
01 13:35 Calm 16.09 Fair CLR 15 2 42% 75.95 0.0
01 13:15 Vrbl 9 16.09 Fair CLR 15 2 42% 75.95 0.0
01 12:55 W 7 16.09 Fair CLR 14 2 44% 75.95 0.0
01 12:35 W 9 16.09 Fair CLR 14 2 44% 76 0.0
01 12:15 NW 9 16.09 Fair CLR 13 1 44% 76 0.0
01 11:55 NW 13 G 33 16.09 Fair CLR 13 1 44% 76.02 0.0
01 11:35 Vrbl 9 G 20 16.09 Fair CLR 13 2 47% 76.05 0.0
01 11:15 Vrbl 11 14.48 Fair CLR 13 1 44% 76.05 0.0
01 10:55 W 15 16.09 Fair CLR 12 2 51% 76.05 0.0
01 10:35 Calm 16.09 Partly Cloudy SCT034 12 2 51% 76.07 0.0
01 10:15 W 9 16.09 Partly Cloudy SCT033 11 3 58% 76.07 0.0
01 09:55 Vrbl 7 G 20 16.09 Fair CLR 11 4 62% 76.07 0.0
01 09:35 NW 13 G 24 16.09 Fair CLR 10 3 62% 8 76.07 0.0
01 09:15 NW 17 16.09 Fair CLR 10 3 62% 8 76.07 0.0
01 08:55 NW 9 G 24 16.09 Fair CLR 10 4 67% 9 76.07 0.0
01 08:35 N 13 16.09 Fair CLR 10 5 71% 8 76.07 0.0
01 08:15 NW 15 16.09 Fair CLR 9 5 76% 7 76.07 0.0
01 07:55 NW 13 16.09 Fair CLR 8 5 82% 6 76.07 0.0
01 07:35 NW 13 16.09 Fair CLR 7 5 87% 5 76.07 0.0
01 07:15 W 9 16.09 Fair CLR 6 6 100% 4 76.07 0.0
01 06:55 NW 7 16.09 Fair CLR 4 4 100% 2 76.05 0.0
01 06:35 Calm 16.09 Fair CLR 3 3 100% 76.05 0.0
01 06:15 Calm 16.09 Fair CLR 3 3 100% 76.05 0.0
01 05:55 Calm 16.09 Fair CLR 3 3 100% 76.05 0.0
01 05:35 Calm 16.09 Fair CLR 3 3 100% 76.02 0.0
01 05:15 Calm 16.09 A Few Clouds FEW044 5 5 100% 76.02 0.0
01 04:55 NW 7 16.09 Partly Cloudy SCT045 5 5 100% 4 76.02 0.0
01 04:35 NW 7 16.09 A Few Clouds FEW048 5 5 100% 4 76 0.0
01 04:15 NW 9 16.09 Partly Cloudy FEW040 SCT049 5 5 100% 3 76 0.0
01 03:55 NW 7 16.09 A Few Clouds FEW042 5 5 100% 4 76 0.0
01 03:35 NW 9 16.09 Fair CLR 5 5 100% 3 75.97 0.0
01 03:15 NW 7 16.09 Fair CLR 6 6 100% 5 75.97 0.0
01 02:55 NW 7 16.09 Fair CLR 6 6 100% 5 75.97 0.0
01 02:35 NW 6 16.09 Fair CLR 7 7 100% 75.97 0.0
01 02:15 NW 9 16.09 A Few Clouds FEW075 7 7 100% 5 75.97 0.0
01 01:55 NW 9 16.09 Mostly Cloudy BKN070 8 8 100% 7 75.95 0.0
01 01:35 NW 7 16.09 Mostly Cloudy BKN070 8 8 100% 7 75.95 0.0
01 01:15 NW 7 16.09 Mostly Cloudy BKN065 8 8 100% 7 75.95 0.0
01 00:55 NW 7 16.09 Mostly Cloudy FEW050 BKN065 8 8 100% 7 75.95 0.0
01 00:35 NW 9 16.09 Mostly Cloudy BKN050 BKN070 9 8 94% 8 75.92 0.0
01 00:15 Vrbl 11 16.09 Overcast OVC050 9 8 94% 8 75.92 0.0
30 23:55 NW 11 G 22 16.09 Overcast OVC050 9 9 100% 8 75.9 0.0
30 23:35 NW 11 16.09 Overcast BKN049 OVC060 9 9 100% 8 75.92 0.0
30 23:15 NW 17 16.09 Overcast OVC047 10 9 94% 8 75.92 0.0
30 22:55 NW 11 G 20 16.09 Overcast BKN043 OVC050 10 9 94% 9 75.92 0.0
30 22:35 NW 13 16.09 Overcast OVC041 10 8 88% 8 75.92 0.0
30 22:15 Vrbl 11 16.09 Overcast BKN042 BKN049 OVC065 10 9 94% 9 75.9 0.0
30 21:55 NW 13 16.09 Overcast SCT045 BKN050 OVC065 10 9 94% 8 75.9 0.0
30 21:35 NW 13 16.09 Overcast SCT044 BKN055 OVC065 10 10 100% 8 75.87 0.0
30 21:15 NW 13 16.09 Overcast OVC050 10 10 100% 8 75.84 0.0
30 20:55 NW 9 16.09 Overcast BKN050 OVC060 10 10 100% 9 75.82 0.0
30 20:35 NW 13 16.09 Overcast BKN049 OVC060 10 10 100% 8 75.79 0.0
30 19:55 NW 11 16.09 Mostly Cloudy SCT065 BKN095 11 11 100% 75.74 0.0
30 19:35 NW 7 16.09 Mostly Cloudy FEW036 SCT055 BKN070 11 11 100% 75.72 0.0
30 19:15 NW 9 14.48 Mostly Cloudy FEW034 SCT043 BKN055 11 11 100% 75.69 0.0
30 18:55 NW 13 G 26 4.02 Light Rain FEW030 SCT037 BKN046 11 11 100% 75.69 0.0
30 18:35 W 7 12.87 Overcast BKN050 BKN065 OVC095 15 6 55% 75.64 0.0
30 18:15 N 9 16.09 Mostly Cloudy FEW050 FEW065 BKN090 15 5 51% 75.62 0.0
30 17:55 N 6 16.09 Partly Cloudy SCT049 SCT090 15 6 55% 75.62 0.0
30 17:35 Calm 16.09 Mostly Cloudy FEW046 BKN090 16 6 52% 75.62 0.0
30 17:15 NW 9 G 20 16.09 Overcast FEW047 OVC085 15 5 51% 75.62 0.0
30 16:55 N 13 16.09 Overcast SCT040 BKN047 OVC080 16 6 52% 75.59 0.0
30 16:35 NW 13 G 26 16.09 Mostly Cloudy FEW043 SCT055 BKN075 16 7 55% 75.59 0.0
30 16:15 NW 22 16.09 Mostly Cloudy FEW046 BKN075 16 6 52% 75.57 0.0
30 15:55 NW 7 G 20 16.09 Overcast FEW040 FEW046 OVC070 16 7 55% 75.57 0.0
30 15:35 NW 17 16.09 Overcast FEW033 FEW050 OVC070 15 7 59% 75.57 0.0
30 15:15 W 15 G 24 16.09 Overcast SCT033 SCT045 OVC065 15 8 63% 75.59 0.0
30 14:55 Vrbl 11 G 22 16.09 Overcast SCT033 SCT044 OVC060 15 8 63% 75.59 0.0
30 14:35 W 17 16.09 Overcast BKN033 SCT046 OVC060 15 8 63% 75.59 0.0
30 14:15 NW 13 G 22 16.09 Overcast FEW038 OVC055 15 8 63% 75.59 0.0
30 13:55 NW 15 16.09 Overcast SCT026 BKN040 OVC050 14 8 67% 75.59 0.0
30 13:35 Vrbl 11 G 20 16.09 Overcast BKN026 BKN030 OVC036 15 10 72% 75.59 0.0
30 13:15 Vrbl 7 G 24 16.09 Overcast SCT028 BKN037 OVC047 14 9 72% 75.59 0.0
30 12:55 NW 15 G 24 16.09 Overcast BKN042 OVC049 15 9 68% 75.59 0.0
30 12:35 NW 19 G 30 16.09 Overcast FEW023 OVC041 14 9 72% 75.59 0.0
30 12:15 W 15 16.09 Overcast FEW021 SCT031 OVC039 14 10 77% 75.59 0.0
30 11:55 W 11 16.09 Overcast FEW021 SCT028 OVC034 13 11 88% 75.62 0.0
30 11:35 Vrbl 9 G 19 16.09 Overcast SCT018 BKN027 OVC033 13 10 82% 75.64 0.0
30 11:15 Vrbl 11 16.09 Overcast BKN016 BKN024 OVC029 12 11 94% 75.64 0.0
30 10:55 Vrbl 11 16.09 Overcast BKN014 OVC019 12 12 100% 75.67 0.0
30 10:35 Vrbl 9 14.48 Overcast BKN010 OVC014 11 11 100% 75.64 0.0
30 10:15 NW 9 14.48 Overcast BKN009 OVC013 11 11 100% 75.59 0.0
30 09:55 Vrbl 9 12.87 Overcast OVC007 10 10 100% 9 75.59 0.0
30 09:35 NW 9 11.27 Overcast OVC005 10 10 100% 9 75.59 0.0
30 08:55 NW 7 4.02 Fog/Mist OVC004 9 9 100% 8 75.62 0.0
30 08:35 W 6 4.83 Fog/Mist OVC004 9 9 100% 75.62 0.0
30 08:15 Calm 3.22 Fog/Mist OVC003 9 9 100% 75.59 0.0
30 07:55 Calm 1.21 Fog/Mist OVC003 9 9 100% 75.59 0.0
30 07:35 Calm 1.21 Fog/Mist OVC003 9 9 100% 75.62 0.0
30 07:15 Calm 1.21 Fog/Mist OVC003 9 9 100% 75.62 0.0
30 06:35 Calm 1.61 Fog/Mist OVC003 8 8 100% 75.59 0.0
30 06:15 Calm 2.41 Fog/Mist OVC004 8 8 100% 75.59 0.0
30 05:55 Calm 4.83 Fog/Mist OVC004 8 8 100% 75.59 0.0
30 05:35 Calm 4.83 Fog/Mist OVC004 8 8 100% 75.59 0.0
30 05:15 Calm 4.83 Fog/Mist OVC004 8 8 100% 75.57 0.0
30 04:55 Calm 6.44 Fog/Mist OVC005 8 8 100% 75.54 0.0
30 04:35 Calm 11.27 Overcast OVC006 8 8 100% 75.57 0.0
30 04:15 Calm 8.05 Fog/Mist OVC006 8 8 100% 75.54 0.0
30 03:55 Calm 14.48 Overcast BKN007 OVC010 8 8 100% 75.57 0.0
30 03:35 Calm 16.09 Overcast OVC009 8 8 100% 75.57 0.0
30 03:15 Calm 16.09 Overcast OVC009 8 8 100% 75.59 0.0
30 02:55 Calm 12.87 Overcast BKN009 OVC016 8 8 100% 75.59 0.0
30 02:35 Calm 16.09 Overcast FEW010 OVC018 8 8 100% 75.62 0.0
30 02:15 Calm 16.09 Overcast FEW008 OVC020 8 8 100% 75.62 0.0
30 01:55 Calm 16.09 Overcast FEW006 FEW010 OVC023 8 8 100% 75.64 0.0
Date Time (edt) Wind (kph) Vis. (km) Weather Sky Cond. Air Dwpt Max. Min. Relative Humidity Wind Chill (°C) Heat Index (°C) altimeter (cm) sea level (mb) 1 hr 3 hr 6 hr
6 hour
Temperature (ºC) Pressure Precipitation (cm)